Time;durP1;ratioP1;P1;durP2;ratioP2;P2;SDS_P1;SDS_P2;PMS_P1;PMS_P2;Temp;Humidity;BMP_temperature;BMP_pressure;BME280_temperature;BME280_humidity;BME280_pressure;Samples;Min_cycle;Max_cycle;Signal;HPM_P1;HPM_P2
2022/03/08 00:01:02;;;;;;;;;;;-2.40;99.90;;;;;;5069197;28;19919;-83
2022/03/08 00:03:29;;;;;;;;;;;-2.40;99.90;;;;;;5086906;28;20173;-84
2022/03/08 00:05:55;;;;;;;;;;;-2.50;99.90;;;;;;5086623;28;20056;-85
2022/03/08 00:08:20;;;;;;;;;;;-2.60;99.90;;;;;;5087097;28;20067;-84
2022/03/08 00:10:46;;;;;;;;;;;-2.60;99.90;;;;;;5072250;28;20106;-83
2022/03/08 00:13:13;;;;;;;;;;;-2.60;99.90;;;;;;5089607;28;19987;-83
2022/03/08 00:15:40;;;;;;;;;;;-2.70;99.90;;;;;;5089084;28;20056;-84
2022/03/08 00:18:06;;;;;;;;;;;-2.70;99.90;;;;;;5076430;28;20520;-83
2022/03/08 00:20:32;;;;;;;;;;;-2.70;99.90;;;;;;5090209;28;20517;-84
2022/03/08 00:22:58;;;;;;;;;;;-2.70;99.90;;;;;;5090028;28;20009;-84
2022/03/08 00:25:24;;;;;;;;;;;-2.80;99.90;;;;;;5089698;28;20561;-83
2022/03/08 00:27:50;;;;;;;;;;;-2.70;99.90;;;;;;5090740;28;19909;-83
2022/03/08 00:30:17;;;;;;;;;;;-2.60;99.90;;;;;;5073890;28;19908;-83
2022/03/08 00:32:43;;;;;;;;;;;-2.60;99.90;;;;;;5070530;28;20065;-82
2022/03/08 00:35:09;;;;;;;;;;;-2.50;99.90;;;;;;5085836;28;20072;-82
2022/03/08 00:37:35;;;;;;;;;;;-2.60;99.90;;;;;;5098701;28;19916;-84
2022/03/08 00:40:02;;;;;;;;;;;-2.60;99.90;;;;;;5090327;28;20223;-83
2022/03/08 00:42:27;;;;;;;;;;;-2.70;99.90;;;;;;5087597;28;20141;-83
2022/03/08 00:44:53;;;;;;;;;;;-2.70;99.90;;;;;;5070576;28;20158;-84
2022/03/08 00:47:19;;;;;;;;;;;-2.60;99.90;;;;;;5071724;28;20043;-84
2022/03/08 00:49:44;;;;;;;;;;;-2.70;99.90;;;;;;5055538;28;20254;-83
2022/03/08 00:52:10;;;;;;;;;;;-2.70;99.90;;;;;;5057212;28;20758;-84
2022/03/08 00:54:36;;;;;;;;;;;-2.80;99.90;;;;;;5055796;28;20102;-84
2022/03/08 00:57:02;;;;;;;;;;;-2.80;99.90;;;;;;5089879;28;19916;-83
2022/03/08 00:59:27;;;;;;;;;;;-2.70;99.90;;;;;;5090034;28;20038;-83
2022/03/08 01:01:53;;;;;;;;;;;-2.60;99.90;;;;;;5072752;28;19959;-84
2022/03/08 01:04:18;;;;;;;;;;;-2.70;99.90;;;;;;5071859;28;20132;-84
2022/03/08 01:06:44;;;;;;;;;;;-2.70;99.90;;;;;;5073511;28;19995;-84
2022/03/08 01:09:10;;;;;;;;;;;-2.70;99.90;;;;;;5072365;28;20045;-84
2022/03/08 01:11:36;;;;;;;;;;;-2.70;99.90;;;;;;5072412;28;19909;-84
2022/03/08 01:14:06;;;;;;;;;;;-2.70;99.90;;;;;;5087644;28;19978;-84
2022/03/08 01:16:32;;;;;;;;;;;-2.70;99.90;;;;;;5087514;28;20397;-84
2022/03/08 01:18:58;;;;;;;;;;;-2.80;99.90;;;;;;5087515;28;19954;-83
2022/03/08 01:21:24;;;;;;;;;;;-2.80;99.90;;;;;;5091265;28;20042;-83
2022/03/08 01:23:49;;;;;;;;;;;-2.80;99.90;;;;;;5090402;28;20031;-83
2022/03/08 01:26:15;;;;;;;;;;;-2.70;99.90;;;;;;5086633;28;19959;-83
2022/03/08 01:28:41;;;;;;;;;;;-2.80;99.90;;;;;;5063481;28;20035;-82
2022/03/08 01:31:07;;;;;;;;;;;-2.80;99.90;;;;;;5069215;28;20047;-83
2022/03/08 01:33:32;;;;;;;;;;;-2.80;99.90;;;;;;5052623;28;19967;-83
2022/03/08 01:35:58;;;;;;;;;;;-2.80;99.90;;;;;;5070060;28;20118;-81
2022/03/08 01:38:24;;;;;;;;;;;-2.70;99.90;;;;;;5087848;28;19933;-83
2022/03/08 01:40:50;;;;;;;;;;;-2.80;99.90;;;;;;5071112;28;20038;-84
2022/03/08 01:43:16;;;;;;;;;;;-2.80;99.90;;;;;;5070145;28;19918;-83
2022/03/08 01:45:42;;;;;;;;;;;-2.70;99.90;;;;;;5087144;28;20032;-82
2022/03/08 01:48:08;;;;;;;;;;;-2.60;99.90;;;;;;5087417;28;19912;-83
2022/03/08 01:50:36;;;;;;;;;;;-2.70;99.90;;;;;;5099032;28;19927;-82
2022/03/08 01:53:01;;;;;;;;;;;-2.70;99.90;;;;;;5108016;28;19916;-82
2022/03/08 01:55:27;;;;;;;;;;;-2.70;99.90;;;;;;5097194;28;20466;-84
2022/03/08 01:57:53;;;;;;;;;;;-2.70;99.90;;;;;;5070181;28;19916;-84
2022/03/08 02:00:20;;;;;;;;;;;-2.60;99.90;;;;;;5069754;28;19919;-83
2022/03/08 02:02:46;;;;;;;;;;;-2.60;99.90;;;;;;5069512;28;20392;-82
2022/03/08 02:05:12;;;;;;;;;;;-2.60;99.90;;;;;;5086721;28;20055;-83
2022/03/08 02:07:38;;;;;;;;;;;-2.50;99.90;;;;;;5068999;28;19912;-84
2022/03/08 02:10:04;;;;;;;;;;;-2.50;99.90;;;;;;5085501;28;19909;-84
2022/03/08 02:12:33;;;;;;;;;;;-2.50;99.90;;;;;;5086383;28;20090;-83
2022/03/08 02:18:28;;;;;;;;;;;-2.50;99.90;;;;;;5081133;28;20055;-83
2022/03/08 02:20:58;;;;;;;;;;;-2.50;99.90;;;;;;5067925;28;19912;-84
2022/03/08 02:23:23;;;;;;;;;;;-2.70;99.90;;;;;;5070618;28;20279;-83
2022/03/08 02:25:49;;;;;;;;;;;-2.70;99.90;;;;;;5068494;28;20548;-83
2022/03/08 02:28:15;;;;;;;;;;;-2.80;99.90;;;;;;5069225;28;20272;-82
2022/03/08 02:30:40;;;;;;;;;;;-2.80;99.90;;;;;;5053003;28;20019;-82
2022/03/08 02:33:07;;;;;;;;;;;-2.70;99.90;;;;;;5068775;28;20061;-84
2022/03/08 02:35:32;;;;;;;;;;;-2.70;99.90;;;;;;5092138;28;20129;-83
2022/03/08 02:37:59;;;;;;;;;;;-2.70;99.90;;;;;;5069409;28;19916;-83
2022/03/08 02:40:37;;;;;;;;;;;-2.80;99.90;;;;;;5086192;28;20031;-82
2022/03/08 02:43:04;;;;;;;;;;;-2.70;99.90;;;;;;5089514;28;20062;-83
2022/03/08 02:45:30;;;;;;;;;;;-2.80;99.90;;;;;;5087670;28;19909;-83
2022/03/08 02:47:56;;;;;;;;;;;-2.80;99.90;;;;;;5072873;28;19970;-83
2022/03/08 02:50:22;;;;;;;;;;;-2.80;99.90;;;;;;5070810;28;19934;-83
2022/03/08 02:52:51;;;;;;;;;;;-2.80;99.90;;;;;;5053737;28;20042;-83
2022/03/08 02:55:17;;;;;;;;;;;-2.90;99.90;;;;;;5088316;28;20038;-85
2022/03/08 02:57:43;;;;;;;;;;;-2.90;99.90;;;;;;5092649;28;20025;-81
2022/03/08 03:00:11;;;;;;;;;;;-2.80;99.90;;;;;;5080824;28;19912;-83
2022/03/08 03:02:36;;;;;;;;;;;-2.80;99.90;;;;;;5098487;28;20056;-84
2022/03/08 03:05:02;;;;;;;;;;;-2.70;99.90;;;;;;5064973;28;20433;-83
2022/03/08 03:07:27;;;;;;;;;;;-2.80;99.90;;;;;;5081536;28;20269;-83
2022/03/08 03:09:53;;;;;;;;;;;-2.90;99.90;;;;;;5081613;28;19912;-83
2022/03/08 03:12:19;;;;;;;;;;;-2.90;99.90;;;;;;5081581;28;20067;-83
2022/03/08 03:14:44;;;;;;;;;;;-3.00;99.90;;;;;;5082587;28;19908;-83
2022/03/08 03:17:10;;;;;;;;;;;-3.00;99.90;;;;;;5081017;28;20693;-83
2022/03/08 03:19:36;;;;;;;;;;;-3.10;99.90;;;;;;5077224;28;19909;-84
2022/03/08 03:22:02;;;;;;;;;;;-3.10;99.90;;;;;;5085511;28;19981;-84
2022/03/08 03:24:28;;;;;;;;;;;-3.20;99.90;;;;;;5085552;28;20035;-83
2022/03/08 03:26:53;;;;;;;;;;;-3.10;99.90;;;;;;5068352;28;20061;-84
2022/03/08 03:29:19;;;;;;;;;;;-3.20;99.90;;;;;;5068857;28;19959;-83
2022/03/08 03:31:45;;;;;;;;;;;-3.20;99.90;;;;;;5068277;28;20451;-83
2022/03/08 03:34:10;;;;;;;;;;;-3.20;99.90;;;;;;5085212;28;20074;-84
2022/03/08 03:36:36;;;;;;;;;;;-3.30;99.90;;;;;;5067562;28;20276;-84
2022/03/08 03:39:03;;;;;;;;;;;-3.30;99.90;;;;;;5068725;28;20043;-83
2022/03/08 03:41:28;;;;;;;;;;;-3.40;99.90;;;;;;5051747;28;19913;-83
2022/03/08 03:43:54;;;;;;;;;;;-3.50;99.90;;;;;;5068580;28;20406;-82
2022/03/08 03:46:20;;;;;;;;;;;-3.50;99.90;;;;;;5073724;28;19995;-83
2022/03/08 03:48:47;;;;;;;;;;;-3.60;99.90;;;;;;5088570;28;19908;-83
2022/03/08 03:51:14;;;;;;;;;;;-3.60;99.90;;;;;;5088807;28;19934;-82
2022/03/08 03:53:39;;;;;;;;;;;-3.70;99.90;;;;;;5072874;28;19975;-84
2022/03/08 03:56:05;;;;;;;;;;;-3.70;99.90;;;;;;5071665;28;20358;-84
2022/03/08 03:58:31;;;;;;;;;;;-3.70;99.90;;;;;;5070662;28;20050;-83
2022/03/08 04:00:56;;;;;;;;;;;-3.70;99.90;;;;;;5071966;28;20007;-82
2022/03/08 04:03:23;;;;;;;;;;;-3.70;99.90;;;;;;5077534;28;19959;-84
2022/03/08 04:05:48;;;;;;;;;;;-3.60;99.90;;;;;;5088471;28;20052;-84
2022/03/08 04:08:17;;;;;;;;;;;-3.60;99.90;;;;;;5071694;28;19978;-84
2022/03/08 04:10:46;;;;;;;;;;;-3.50;99.90;;;;;;5089098;28;19985;-84
2022/03/08 04:13:11;;;;;;;;;;;-3.60;99.90;;;;;;5088169;28;19923;-84
2022/03/08 04:15:38;;;;;;;;;;;-3.60;99.90;;;;;;5071336;28;20338;-84
2022/03/08 04:18:04;;;;;;;;;;;-3.60;99.90;;;;;;5072032;28;19974;-83
2022/03/08 04:20:30;;;;;;;;;;;-3.60;99.90;;;;;;5072195;28;19936;-83
2022/03/08 04:22:55;;;;;;;;;;;-3.60;99.90;;;;;;5069759;28;20042;-83
2022/03/08 04:25:21;;;;;;;;;;;-3.50;99.90;;;;;;5068935;28;20301;-83
2022/03/08 04:27:47;;;;;;;;;;;-3.50;99.90;;;;;;5086842;28;20490;-83
2022/03/08 04:30:13;;;;;;;;;;;-3.50;99.90;;;;;;5070538;28;20335;-82
2022/03/08 04:32:38;;;;;;;;;;;-3.50;99.90;;;;;;5087800;28;19977;-83
2022/03/08 04:35:05;;;;;;;;;;;-3.50;99.90;;;;;;5071558;28;19961;-84
2022/03/08 04:37:31;;;;;;;;;;;-3.50;99.90;;;;;;5087471;28;20085;-84
2022/03/08 04:39:57;;;;;;;;;;;-3.40;99.90;;;;;;5087648;28;20033;-83
2022/03/08 04:42:23;;;;;;;;;;;-3.40;99.90;;;;;;5072881;28;19937;-83
2022/03/08 04:44:49;;;;;;;;;;;-3.40;99.90;;;;;;5073538;28;20349;-82
2022/03/08 04:47:15;;;;;;;;;;;-3.40;99.90;;;;;;5089853;28;19919;-83
2022/03/08 04:49:40;;;;;;;;;;;-3.50;99.90;;;;;;5091297;28;20039;-84
2022/03/08 04:52:06;;;;;;;;;;;-3.50;99.90;;;;;;5074407;28;19920;-83
2022/03/08 04:54:32;;;;;;;;;;;-3.50;99.90;;;;;;5054320;28;19936;-83
2022/03/08 04:56:57;;;;;;;;;;;-3.60;99.90;;;;;;5069504;28;20501;-84
2022/03/08 04:59:23;;;;;;;;;;;-3.60;99.90;;;;;;5070621;28;19916;-84
2022/03/08 05:01:49;;;;;;;;;;;-3.50;99.90;;;;;;5069437;28;19934;-82
2022/03/08 05:04:15;;;;;;;;;;;-3.40;99.90;;;;;;5069889;28;19955;-82
2022/03/08 05:06:41;;;;;;;;;;;-3.40;99.90;;;;;;5086899;28;20405;-84
2022/03/08 05:09:07;;;;;;;;;;;-3.40;99.90;;;;;;5085973;28;20123;-83
2022/03/08 05:11:32;;;;;;;;;;;-3.30;99.90;;;;;;5069455;28;20043;-84
2022/03/08 05:13:58;;;;;;;;;;;-3.40;99.90;;;;;;5071889;28;19951;-83
2022/03/08 05:16:24;;;;;;;;;;;-3.30;99.90;;;;;;5053621;28;19958;-83
2022/03/08 05:18:50;;;;;;;;;;;-3.20;99.90;;;;;;5071905;28;20444;-84
2022/03/08 05:21:15;;;;;;;;;;;-3.10;99.90;;;;;;5086061;28;20048;-83
2022/03/08 05:23:41;;;;;;;;;;;-3.10;99.90;;;;;;5069193;28;19916;-83
2022/03/08 05:26:06;;;;;;;;;;;-3.10;99.90;;;;;;5070560;28;20430;-83
2022/03/08 05:28:32;;;;;;;;;;;-3.00;99.90;;;;;;5087674;28;20119;-82
2022/03/08 05:30:58;;;;;;;;;;;-2.90;99.90;;;;;;5099895;28;20039;-84
2022/03/08 05:33:23;;;;;;;;;;;-2.90;99.90;;;;;;5089156;28;20011;-83
2022/03/08 05:35:50;;;;;;;;;;;-2.90;99.90;;;;;;5086274;28;20097;-83
2022/03/08 05:38:16;;;;;;;;;;;-3.00;99.90;;;;;;5070506;28;20057;-84
2022/03/08 05:40:42;;;;;;;;;;;-3.10;99.90;;;;;;5086310;28;20046;-83
2022/03/08 05:43:07;;;;;;;;;;;-3.10;99.90;;;;;;5069209;28;19913;-83
2022/03/08 05:45:33;;;;;;;;;;;-3.20;99.90;;;;;;5067871;28;19960;-84
2022/03/08 05:47:59;;;;;;;;;;;-3.30;99.90;;;;;;5068478;28;19913;-83
2022/03/08 05:50:24;;;;;;;;;;;-3.20;99.90;;;;;;5069833;28;19912;-83
2022/03/08 05:52:50;;;;;;;;;;;-3.20;99.90;;;;;;5069027;28;19912;-82
2022/03/08 05:55:15;;;;;;;;;;;-3.10;99.90;;;;;;5067701;28;20492;-84
2022/03/08 05:57:42;;;;;;;;;;;-3.10;99.90;;;;;;5087873;28;20077;-84
2022/03/08 06:00:09;;;;;;;;;;;-3.10;99.90;;;;;;5055158;28;20043;-83
2022/03/08 06:02:37;;;;;;;;;;;-3.10;99.90;;;;;;5055374;28;20446;-83
2022/03/08 06:05:04;;;;;;;;;;;-3.10;99.90;;;;;;5072613;28;20070;-83
2022/03/08 06:07:30;;;;;;;;;;;-3.00;99.90;;;;;;5054937;28;19957;-84
2022/03/08 06:09:55;;;;;;;;;;;-3.00;99.90;;;;;;5055241;28;20234;-83
2022/03/08 06:12:21;;;;;;;;;;;-2.90;99.90;;;;;;5071543;28;20011;-85
2022/03/08 06:14:46;;;;;;;;;;;-3.00;99.90;;;;;;5055169;28;19912;-83
2022/03/08 06:17:12;;;;;;;;;;;-3.00;99.90;;;;;;5055315;28;20054;-85
2022/03/08 06:19:38;;;;;;;;;;;-3.00;99.90;;;;;;5054947;28;20506;-83
2022/03/08 06:22:04;;;;;;;;;;;-2.80;99.90;;;;;;5054338;28;20630;-84
2022/03/08 06:24:33;;;;;;;;;;;-2.70;99.90;;;;;;5070808;28;20132;-84
2022/03/08 06:26:58;;;;;;;;;;;-2.60;99.90;;;;;;5072101;28;20565;-84
2022/03/08 06:29:24;;;;;;;;;;;-2.50;99.90;;;;;;5071990;28;20133;-84
2022/03/08 06:31:50;;;;;;;;;;;-2.60;99.90;;;;;;5055741;28;19912;-84
2022/03/08 06:34:15;;;;;;;;;;;-2.50;99.90;;;;;;5072176;28;20106;-84
2022/03/08 06:36:41;;;;;;;;;;;-2.50;99.90;;;;;;5072146;28;19912;-84
2022/03/08 06:39:07;;;;;;;;;;;-2.40;99.90;;;;;;5089680;28;19919;-84
2022/03/08 06:41:34;;;;;;;;;;;-2.30;99.90;;;;;;5072047;28;19908;-84
2022/03/08 06:44:00;;;;;;;;;;;-2.30;99.90;;;;;;5054643;28;19930;-84
2022/03/08 06:46:25;;;;;;;;;;;-2.20;99.90;;;;;;5055052;28;20110;-85
2022/03/08 06:48:51;;;;;;;;;;;-2.20;99.90;;;;;;5054817;28;20409;-83
2022/03/08 06:51:17;;;;;;;;;;;-2.10;99.90;;;;;;5054125;28;20041;-84
2022/03/08 06:53:43;;;;;;;;;;;-2.10;99.90;;;;;;5054058;28;20741;-84
2022/03/08 06:56:08;;;;;;;;;;;-2.00;99.90;;;;;;5072392;28;19919;-83
2022/03/08 06:58:34;;;;;;;;;;;-1.90;99.90;;;;;;5054857;28;19916;-85
2022/03/08 07:01:00;;;;;;;;;;;-1.80;99.90;;;;;;5054626;28;20031;-84
2022/03/08 07:03:25;;;;;;;;;;;-1.70;99.90;;;;;;5089301;28;19919;-84
2022/03/08 07:05:51;;;;;;;;;;;-1.60;99.90;;;;;;5054484;28;19916;-82
2022/03/08 07:08:16;;;;;;;;;;;-1.60;99.90;;;;;;5054166;28;20159;-84
2022/03/08 07:10:43;;;;;;;;;;;-1.50;99.90;;;;;;5052660;28;19954;-84
2022/03/08 07:13:09;;;;;;;;;;;-1.40;99.90;;;;;;5069190;28;19912;-84
2022/03/08 07:15:35;;;;;;;;;;;-1.40;99.90;;;;;;5054537;28;19908;-83
2022/03/08 07:18:01;;;;;;;;;;;-1.30;99.90;;;;;;5054768;28;20054;-83
2022/03/08 07:20:27;;;;;;;;;;;-1.20;99.90;;;;;;5054607;28;19908;-84
2022/03/08 07:22:53;;;;;;;;;;;-1.10;99.90;;;;;;5071489;28;19915;-84
2022/03/08 07:25:19;;;;;;;;;;;-1.10;99.90;;;;;;5053690;28;19915;-85
2022/03/08 07:27:46;;;;;;;;;;;-1.00;99.90;;;;;;5054164;28;19912;-85
2022/03/08 07:30:11;;;;;;;;;;;-0.90;99.90;;;;;;5054445;28;20006;-86
2022/03/08 07:32:37;;;;;;;;;;;-0.70;99.90;;;;;;5054651;28;20040;-85
2022/03/08 07:35:03;;;;;;;;;;;-0.70;99.90;;;;;;5054221;28;20033;-84
2022/03/08 07:37:33;;;;;;;;;;;-0.60;99.90;;;;;;5071178;28;20092;-84
2022/03/08 07:39:58;;;;;;;;;;;-0.50;99.90;;;;;;5072253;28;20408;-84
2022/03/08 07:42:25;;;;;;;;;;;-0.40;99.90;;;;;;5090659;28;19908;-84
2022/03/08 07:44:51;;;;;;;;;;;-0.30;99.90;;;;;;5076875;28;20060;-85
2022/03/08 07:47:16;;;;;;;;;;;-0.20;99.90;;;;;;5091976;28;19900;-85
2022/03/08 07:49:42;;;;;;;;;;;-0.10;99.90;;;;;;5054066;28;19912;-84
2022/03/08 07:52:07;;;;;;;;;;;0.00;99.90;;;;;;5070331;28;20068;-84
2022/03/08 07:54:33;;;;;;;;;;;0.00;99.90;;;;;;5054155;28;19912;-85
2022/03/08 07:56:59;;;;;;;;;;;0.10;99.90;;;;;;5089332;28;20034;-85
2022/03/08 07:59:26;;;;;;;;;;;0.10;99.90;;;;;;5072845;28;20068;-85
2022/03/08 08:01:51;;;;;;;;;;;0.20;99.90;;;;;;5055657;28;20492;-85
2022/03/08 08:04:17;;;;;;;;;;;0.20;99.90;;;;;;5056254;28;20042;-84
2022/03/08 08:06:44;;;;;;;;;;;0.30;99.90;;;;;;5071196;28;20053;-82
2022/03/08 08:09:09;;;;;;;;;;;0.40;99.90;;;;;;5056729;28;20080;-83
2022/03/08 08:11:35;;;;;;;;;;;0.40;99.90;;;;;;5071701;28;20068;-83
2022/03/08 08:14:01;;;;;;;;;;;0.50;99.90;;;;;;5072237;28;20062;-84
2022/03/08 08:16:26;;;;;;;;;;;0.60;99.90;;;;;;5055510;28;19982;-85
2022/03/08 08:18:52;;;;;;;;;;;0.70;99.90;;;;;;5055249;28;19916;-84
2022/03/08 08:21:17;;;;;;;;;;;0.80;99.90;;;;;;5056626;28;19919;-86
2022/03/08 08:23:43;;;;;;;;;;;0.80;99.90;;;;;;5056543;28;20397;-82
2022/03/08 08:26:09;;;;;;;;;;;0.90;99.90;;;;;;5055412;28;20046;-85
2022/03/08 08:28:34;;;;;;;;;;;0.90;99.90;;;;;;5054286;28;20449;-85
2022/03/08 08:31:00;;;;;;;;;;;1.00;99.90;;;;;;5056548;28;20035;-85
2022/03/08 08:33:25;;;;;;;;;;;1.00;99.90;;;;;;5075820;28;20102;-86
2022/03/08 08:35:51;;;;;;;;;;;1.00;99.90;;;;;;5059008;28;20071;-86
2022/03/08 08:38:17;;;;;;;;;;;1.10;99.90;;;;;;5075690;28;20077;-86
2022/03/08 08:40:42;;;;;;;;;;;1.20;99.90;;;;;;5058366;28;20834;-85
2022/03/08 08:43:11;;;;;;;;;;;1.20;99.90;;;;;;5058577;28;20121;-83
2022/03/08 08:45:37;;;;;;;;;;;1.20;99.90;;;;;;5059007;28;19915;-84
2022/03/08 08:48:03;;;;;;;;;;;1.20;99.90;;;;;;5075140;28;20053;-85
2022/03/08 08:50:29;;;;;;;;;;;1.30;99.90;;;;;;5059182;28;20046;-85
2022/03/08 08:52:56;;;;;;;;;;;1.30;99.90;;;;;;5059246;28;20477;-82
2022/03/08 08:55:22;;;;;;;;;;;1.40;99.90;;;;;;5058665;28;20080;-85
2022/03/08 08:57:48;;;;;;;;;;;1.60;99.90;;;;;;5075438;28;19915;-85
2022/03/08 09:00:13;;;;;;;;;;;1.50;99.90;;;;;;5076344;28;19923;-84
2022/03/08 09:02:42;;;;;;;;;;;1.60;99.90;;;;;;5078558;28;20550;-85
2022/03/08 09:05:08;;;;;;;;;;;1.70;99.90;;;;;;5070698;28;19912;-83
2022/03/08 09:07:34;;;;;;;;;;;1.70;99.90;;;;;;5063022;28;20047;-83
2022/03/08 09:09:59;;;;;;;;;;;1.70;99.90;;;;;;5059946;28;20044;-82
2022/03/08 09:12:25;;;;;;;;;;;1.80;99.90;;;;;;5076454;28;20040;-83
2022/03/08 09:14:51;;;;;;;;;;;1.80;99.90;;;;;;5076776;28;20020;-86
2022/03/08 09:17:16;;;;;;;;;;;1.90;99.90;;;;;;5075833;28;20296;-85
2022/03/08 09:19:42;;;;;;;;;;;2.20;99.90;;;;;;5078460;28;19919;-84
2022/03/08 09:22:07;;;;;;;;;;;2.40;99.90;;;;;;5076789;28;20209;-84
2022/03/08 09:24:35;;;;;;;;;;;2.70;99.90;;;;;;5061888;28;19911;-85
2022/03/08 09:27:01;;;;;;;;;;;2.90;99.90;;;;;;5063116;28;19922;-84
2022/03/08 09:29:27;;;;;;;;;;;3.30;99.90;;;;;;5062335;28;20056;-86
2022/03/08 09:31:53;;;;;;;;;;;3.60;99.90;;;;;;5078304;28;19955;-86
2022/03/08 09:34:18;;;;;;;;;;;4.10;99.90;;;;;;5078127;28;20031;-86
2022/03/08 09:36:44;;;;;;;;;;;4.80;99.90;;;;;;5084496;28;20047;-82
2022/03/08 09:39:10;;;;;;;;;;;5.10;99.90;;;;;;5094426;28;19896;-85
2022/03/08 09:41:37;;;;;;;;;;;5.30;99.90;;;;;;5078856;28;20030;-83
2022/03/08 09:44:02;;;;;;;;;;;5.60;99.90;;;;;;5082356;28;20049;-84
2022/03/08 09:46:28;;;;;;;;;;;5.50;99.90;;;;;;5060882;28;20053;-86
2022/03/08 09:48:54;;;;;;;;;;;5.80;99.90;;;;;;5062365;28;20056;-85
2022/03/08 09:51:20;;;;;;;;;;;6.30;99.20;;;;;;5060381;28;20393;-85
2022/03/08 09:53:46;;;;;;;;;;;6.40;97.90;;;;;;5060128;28;20073;-84
2022/03/08 09:56:12;;;;;;;;;;;6.40;95.50;;;;;;5078547;28;19908;-83
2022/03/08 09:58:39;;;;;;;;;;;5.80;95.70;;;;;;5078749;28;20388;-83
2022/03/08 10:01:05;;;;;;;;;;;5.70;96.10;;;;;;5062407;28;19912;-83
2022/03/08 10:03:39;;;;;;;;;;;5.80;96.50;;;;;;5062152;28;20085;-84
2022/03/08 10:06:05;;;;;;;;;;;5.90;95.80;;;;;;5076913;28;20038;-83
2022/03/08 10:08:31;;;;;;;;;;;6.20;95.40;;;;;;5062427;28;20381;-84
2022/03/08 10:11:00;;;;;;;;;;;6.20;94.30;;;;;;5061982;28;20128;-86
2022/03/08 10:13:28;;;;;;;;;;;6.70;94.20;;;;;;5062719;28;20056;-80
2022/03/08 10:16:08;;;;;;;;;;;7.10;92.60;;;;;;5059720;28;20048;-85
2022/03/08 10:18:47;;;;;;;;;;;7.00;91.10;;;;;;5057932;28;20098;-84
2022/03/08 10:21:32;;;;;;;;;;;6.60;89.40;;;;;;5064228;28;20028;-85
2022/03/08 10:23:59;;;;;;;;;;;6.20;90.30;;;;;;5057860;28;19919;-84
2022/03/08 10:26:24;;;;;;;;;;;6.40;90.40;;;;;;5071412;28;19908;-86
2022/03/08 10:28:51;;;;;;;;;;;6.80;90.20;;;;;;5073336;28;19911;-87
2022/03/08 10:31:17;;;;;;;;;;;6.60;88.20;;;;;;5072452;28;20051;-82
2022/03/08 10:33:44;;;;;;;;;;;6.50;89.50;;;;;;5072920;28;20080;-84
2022/03/08 10:36:12;;;;;;;;;;;6.20;90.10;;;;;;5091442;28;20078;-85
2022/03/08 10:38:39;;;;;;;;;;;6.30;91.00;;;;;;5072311;28;19919;-84
2022/03/08 10:41:18;;;;;;;;;;;6.50;90.60;;;;;;5072788;28;20097;-83
2022/03/08 10:43:48;;;;;;;;;;;6.70;90.90;;;;;;5077029;28;20020;-83
2022/03/08 10:46:18;;;;;;;;;;;7.10;90.70;;;;;;5055881;28;20407;-83
2022/03/08 10:48:47;;;;;;;;;;;7.50;86.20;;;;;;5055963;28;20028;-83
2022/03/08 10:51:14;;;;;;;;;;;7.30;87.90;;;;;;5056564;28;20071;-85
2022/03/08 10:53:41;;;;;;;;;;;7.40;86.70;;;;;;5057089;28;19938;-88
2022/03/08 10:56:08;;;;;;;;;;;7.60;85.60;;;;;;5055198;28;19976;-85
2022/03/08 10:58:33;;;;;;;;;;;7.60;84.20;;;;;;5055636;28;20140;-84
2022/03/08 11:01:00;;;;;;;;;;;7.50;83.60;;;;;;5073859;28;20131;-82
2022/03/08 11:03:26;;;;;;;;;;;7.30;82.30;;;;;;5056818;28;20036;-84
2022/03/08 11:05:53;;;;;;;;;;;7.30;83.50;;;;;;5071633;28;20071;-86
2022/03/08 11:08:21;;;;;;;;;;;7.10;82.40;;;;;;5054695;28;19958;-87
2022/03/08 11:10:47;;;;;;;;;;;7.20;83.30;;;;;;5057089;28;19947;-85
2022/03/08 11:13:15;;;;;;;;;;;7.40;80.40;;;;;;5056483;28;20053;-84
2022/03/08 11:15:41;;;;;;;;;;;7.50;78.90;;;;;;5074685;28;20064;-86
2022/03/08 11:18:08;;;;;;;;;;;7.30;78.30;;;;;;5072025;28;20064;-84
2022/03/08 11:20:34;;;;;;;;;;;7.40;78.10;;;;;;5055354;28;19912;-84
2022/03/08 11:23:00;;;;;;;;;;;7.50;79.10;;;;;;5055858;28;20032;-84
2022/03/08 11:25:30;;;;;;;;;;;7.70;78.00;;;;;;5055377;28;20027;-85
2022/03/08 11:27:56;;;;;;;;;;;8.20;77.40;;;;;;5058480;28;20047;-85
2022/03/08 11:30:26;;;;;;;;;;;8.10;73.50;;;;;;5038707;28;19915;-85
2022/03/08 11:33:08;;;;;;;;;;;7.60;73.70;;;;;;5055090;28;19908;-87
2022/03/08 11:35:40;;;;;;;;;;;7.60;74.60;;;;;;5055638;28;20430;-85
2022/03/08 11:38:06;;;;;;;;;;;7.90;73.80;;;;;;5070624;28;20414;-86
2022/03/08 11:40:33;;;;;;;;;;;8.00;72.00;;;;;;5071391;28;19904;-84
2022/03/08 11:43:04;;;;;;;;;;;8.50;72.20;;;;;;5070621;28;20411;-85
2022/03/08 11:45:30;;;;;;;;;;;8.70;69.60;;;;;;5053075;28;20039;-86
2022/03/08 11:47:55;;;;;;;;;;;8.50;70.50;;;;;;5053758;28;20039;-85
2022/03/08 11:50:27;;;;;;;;;;;8.20;67.80;;;;;;5056080;28;20083;-82
2022/03/08 11:53:02;;;;;;;;;;;8.00;68.90;;;;;;5054411;28;19943;-84
2022/03/08 11:55:28;;;;;;;;;;;7.70;69.00;;;;;;5071859;28;20022;-83
2022/03/08 11:57:55;;;;;;;;;;;7.60;71.30;;;;;;5059041;28;19962;-83
2022/03/08 12:00:23;;;;;;;;;;;7.90;70.20;;;;;;5061327;28;20098;-85
2022/03/08 12:02:53;;;;;;;;;;;8.20;69.30;;;;;;5063977;28;20119;-85
2022/03/08 12:05:37;;;;;;;;;;;8.60;67.50;;;;;;5076797;28;19926;-85
2022/03/08 12:08:25;;;;;;;;;;;8.40;66.00;;;;;;5062821;28;20050;-83
2022/03/08 12:10:57;;;;;;;;;;;8.30;69.10;;;;;;5062339;28;20135;-83
2022/03/08 12:13:27;;;;;;;;;;;8.20;67.90;;;;;;5080480;28;20045;-83
2022/03/08 12:16:05;;;;;;;;;;;8.20;68.90;;;;;;5061415;28;19915;-85
2022/03/08 12:18:42;;;;;;;;;;;8.50;68.60;;;;;;5058320;28;20331;-84
2022/03/08 12:21:27;;;;;;;;;;;9.00;67.30;;;;;;5076818;28;20119;-87
2022/03/08 12:23:52;;;;;;;;;;;9.20;66.30;;;;;;5059508;28;20024;-84
2022/03/08 12:26:21;;;;;;;;;;;9.30;65.40;;;;;;5075166;28;20049;-86
2022/03/08 12:29:06;;;;;;;;;;;8.90;65.60;;;;;;5074938;28;20028;-85
2022/03/08 12:31:31;;;;;;;;;;;8.90;66.70;;;;;;5075114;28;19912;-86
2022/03/08 12:34:07;;;;;;;;;;;9.10;65.70;;;;;;5075380;28;20118;-83
2022/03/08 12:36:33;;;;;;;;;;;9.10;65.10;;;;;;5074822;28;20043;-84
2022/03/08 12:38:59;;;;;;;;;;;8.90;65.20;;;;;;5057890;28;20368;-83
2022/03/08 12:41:25;;;;;;;;;;;8.50;66.20;;;;;;5058547;28;19914;-85
2022/03/08 12:44:01;;;;;;;;;;;8.50;67.40;;;;;;5057674;28;19915;-84
2022/03/08 12:46:28;;;;;;;;;;;8.60;66.90;;;;;;5077891;28;19946;-85
2022/03/08 12:48:54;;;;;;;;;;;8.50;64.20;;;;;;5075110;28;20076;-85
2022/03/08 12:51:21;;;;;;;;;;;8.70;67.00;;;;;;5074318;28;20125;-85
2022/03/08 12:53:49;;;;;;;;;;;8.90;66.60;;;;;;5073782;28;20039;-86
2022/03/08 12:56:17;;;;;;;;;;;9.10;65.50;;;;;;5057065;28;20792;-85
2022/03/08 12:58:42;;;;;;;;;;;9.20;65.60;;;;;;5073667;28;19919;-86
2022/03/08 13:01:09;;;;;;;;;;;9.10;62.90;;;;;;5072835;28;20245;-87
2022/03/08 13:03:35;;;;;;;;;;;8.50;61.60;;;;;;5057396;28;19912;-86
2022/03/08 13:06:05;;;;;;;;;;;8.50;65.00;;;;;;5058123;28;20080;-84
2022/03/08 13:08:32;;;;;;;;;;;8.50;64.60;;;;;;5057818;28;19969;-86
2022/03/08 13:11:06;;;;;;;;;;;8.30;64.80;;;;;;5092853;28;19923;-86
2022/03/08 13:13:32;;;;;;;;;;;8.50;64.50;;;;;;5058251;28;20041;-88
2022/03/08 13:15:57;;;;;;;;;;;8.50;63.50;;;;;;5057124;28;19912;-87
2022/03/08 13:18:27;;;;;;;;;;;8.50;64.00;;;;;;5056606;28;20324;-84
2022/03/08 13:20:54;;;;;;;;;;;8.10;64.10;;;;;;5058749;28;19990;-85
2022/03/08 13:23:25;;;;;;;;;;;7.90;63.70;;;;;;5058074;28;20355;-85
2022/03/08 13:25:55;;;;;;;;;;;7.80;65.30;;;;;;5073212;28;19912;-86
2022/03/08 13:28:47;;;;;;;;;;;7.70;67.40;;;;;;5073927;28;20324;-84
2022/03/08 13:31:13;;;;;;;;;;;7.40;65.40;;;;;;5053659;28;20748;-85
2022/03/08 13:33:42;;;;;;;;;;;7.20;66.70;;;;;;5072320;28;19923;-86
2022/03/08 13:36:11;;;;;;;;;;;7.00;67.60;;;;;;5056807;28;19911;-86
2022/03/08 13:38:38;;;;;;;;;;;7.00;66.90;;;;;;5056266;28;19924;-87
2022/03/08 13:41:05;;;;;;;;;;;6.90;66.80;;;;;;5055384;28;20030;-86
2022/03/08 13:43:32;;;;;;;;;;;6.90;67.30;;;;;;5072438;28;20682;-85
2022/03/08 13:45:59;;;;;;;;;;;6.90;68.40;;;;;;5073607;28;19957;-86
2022/03/08 13:48:26;;;;;;;;;;;6.80;68.70;;;;;;5057311;28;20011;-84
2022/03/08 13:50:52;;;;;;;;;;;6.90;69.60;;;;;;5073489;28;20395;-87
2022/03/08 13:53:18;;;;;;;;;;;7.00;69.80;;;;;;5056879;28;19912;-86
2022/03/08 13:55:44;;;;;;;;;;;6.90;69.10;;;;;;5057209;28;19919;-85
2022/03/08 13:58:15;;;;;;;;;;;6.90;69.80;;;;;;5058078;28;20423;-87
2022/03/08 14:00:41;;;;;;;;;;;7.00;69.50;;;;;;5056654;28;20272;-84
2022/03/08 14:03:08;;;;;;;;;;;7.00;69.40;;;;;;5073804;28;20059;-85
2022/03/08 14:05:47;;;;;;;;;;;7.00;69.90;;;;;;5057186;28;19919;-86
2022/03/08 14:08:12;;;;;;;;;;;6.80;68.30;;;;;;5057828;28;19912;-84
2022/03/08 14:10:50;;;;;;;;;;;6.70;69.20;;;;;;5070744;28;19920;-83
2022/03/08 14:13:16;;;;;;;;;;;6.60;68.90;;;;;;5058304;28;20139;-87
2022/03/08 14:15:50;;;;;;;;;;;6.60;68.50;;;;;;5059366;28;19916;-86
2022/03/08 14:18:16;;;;;;;;;;;6.50;69.00;;;;;;5065049;28;19927;-85
2022/03/08 14:20:42;;;;;;;;;;;6.50;68.70;;;;;;5076391;28;19917;-85
2022/03/08 14:23:09;;;;;;;;;;;6.40;70.30;;;;;;5086774;28;19908;-86
2022/03/08 14:25:53;;;;;;;;;;;6.50;69.20;;;;;;5083022;28;19915;-84